sensor_id;sensor_type;location;lat;lon;timestamp;P1;durP1;ratioP1;P2;durP2;ratioP2
26181;SDS011;13927;51.534;11.866;2022-08-19T03:04:59;64.45;;;53.58;;
26181;SDS011;13927;51.534;11.866;2022-08-19T03:07:26;62.42;;;51.22;;
26181;SDS011;13927;51.534;11.866;2022-08-19T03:09:52;60.85;;;52.67;;
26181;SDS011;13927;51.534;11.866;2022-08-19T03:12:17;65.70;;;53.90;;
26181;SDS011;13927;51.534;11.866;2022-08-19T03:14:43;61.00;;;52.38;;
26181;SDS011;13927;51.534;11.866;2022-08-19T03:17:10;62.47;;;50.58;;
26181;SDS011;13927;51.534;11.866;2022-08-19T03:19:37;58.85;;;51.17;;
26181;SDS011;13927;51.534;11.866;2022-08-19T03:22:04;59.92;;;52.25;;
26181;SDS011;13927;51.534;11.866;2022-08-19T03:24:30;62.72;;;53.13;;
26181;SDS011;13927;51.534;11.866;2022-08-19T03:26:56;57.72;;;51.38;;
26181;SDS011;13927;51.534;11.866;2022-08-19T03:29:23;55.40;;;49.00;;
26181;SDS011;13927;51.534;11.866;2022-08-19T03:31:52;56.78;;;50.55;;
26181;SDS011;13927;51.534;11.866;2022-08-19T03:34:22;61.17;;;49.75;;
26181;SDS011;13927;51.534;11.866;2022-08-19T03:36:51;58.85;;;52.45;;
26181;SDS011;13927;51.534;11.866;2022-08-19T03:39:23;58.13;;;50.50;;
26181;SDS011;13927;51.534;11.866;2022-08-19T03:41:50;55.33;;;49.28;;
26181;SDS011;13927;51.534;11.866;2022-08-19T03:44:20;61.15;;;50.78;;
26181;SDS011;13927;51.534;11.866;2022-08-19T03:46:48;55.20;;;47.92;;
26181;SDS011;13927;51.534;11.866;2022-08-19T03:49:21;56.63;;;48.03;;
26181;SDS011;13927;51.534;11.866;2022-08-19T03:51:49;58.00;;;51.78;;
26181;SDS011;13927;51.534;11.866;2022-08-19T03:54:16;56.30;;;50.45;;
26181;SDS011;13927;51.534;11.866;2022-08-19T03:56:46;60.30;;;53.08;;
26181;SDS011;13927;51.534;11.866;2022-08-19T03:59:15;58.25;;;51.70;;
26181;SDS011;13927;51.534;11.866;2022-08-19T04:01:44;56.65;;;50.10;;
26181;SDS011;13927;51.534;11.866;2022-08-19T04:04:10;57.38;;;50.05;;
26181;SDS011;13927;51.534;11.866;2022-08-19T04:06:37;56.28;;;48.97;;
26181;SDS011;13927;51.534;11.866;2022-08-19T04:09:05;56.08;;;49.42;;
26181;SDS011;13927;51.534;11.866;2022-08-19T04:11:37;53.83;;;48.13;;
26181;SDS011;13927;51.534;11.866;2022-08-19T04:14:07;56.50;;;49.85;;
26181;SDS011;13927;51.534;11.866;2022-08-19T04:16:36;55.28;;;49.20;;
26181;SDS011;13927;51.534;11.866;2022-08-19T04:19:02;53.67;;;47.92;;
26181;SDS011;13927;51.534;11.866;2022-08-19T04:21:30;53.17;;;47.60;;
26181;SDS011;13927;51.534;11.866;2022-08-19T04:23:56;55.05;;;48.90;;
26181;SDS011;13927;51.534;11.866;2022-08-19T04:26:24;54.53;;;48.78;;
26181;SDS011;13927;51.534;11.866;2022-08-19T04:28:57;52.40;;;46.72;;
26181;SDS011;13927;51.534;11.866;2022-08-19T04:31:26;52.85;;;46.88;;
26181;SDS011;13927;51.534;11.866;2022-08-19T04:33:55;52.63;;;47.05;;
26181;SDS011;13927;51.534;11.866;2022-08-19T04:36:24;53.85;;;48.05;;
26181;SDS011;13927;51.534;11.866;2022-08-19T04:38:57;50.70;;;45.35;;
26181;SDS011;13927;51.534;11.866;2022-08-19T04:41:34;53.58;;;46.95;;
26181;SDS011;13927;51.534;11.866;2022-08-19T04:44:19;52.33;;;45.95;;
26181;SDS011;13927;51.534;11.866;2022-08-19T04:46:45;53.65;;;47.65;;
26181;SDS011;13927;51.534;11.866;2022-08-19T04:49:13;54.90;;;46.45;;
26181;SDS011;13927;51.534;11.866;2022-08-19T04:51:42;50.30;;;44.85;;
26181;SDS011;13927;51.534;11.866;2022-08-19T04:54:10;50.28;;;45.10;;
26181;SDS011;13927;51.534;11.866;2022-08-19T04:56:38;51.15;;;44.53;;
26181;SDS011;13927;51.534;11.866;2022-08-19T04:59:05;49.35;;;44.17;;
26181;SDS011;13927;51.534;11.866;2022-08-19T05:01:32;50.33;;;43.35;;
26181;SDS011;13927;51.534;11.866;2022-08-19T05:04:02;50.95;;;44.83;;
26181;SDS011;13927;51.534;11.866;2022-08-19T05:06:30;46.47;;;41.90;;
26181;SDS011;13927;51.534;11.866;2022-08-19T05:08:59;47.13;;;42.05;;
26181;SDS011;13927;51.534;11.866;2022-08-19T05:11:28;47.80;;;39.92;;
26181;SDS011;13927;51.534;11.866;2022-08-19T05:13:58;49.30;;;40.65;;
26181;SDS011;13927;51.534;11.866;2022-08-19T05:16:25;45.10;;;39.03;;
26181;SDS011;13927;51.534;11.866;2022-08-19T05:18:52;41.88;;;37.38;;
26181;SDS011;13927;51.534;11.866;2022-08-19T05:21:38;40.83;;;36.75;;
26181;SDS011;13927;51.534;11.866;2022-08-19T05:24:27;40.05;;;35.67;;
26181;SDS011;13927;51.534;11.866;2022-08-19T05:26:54;40.67;;;36.45;;
26181;SDS011;13927;51.534;11.866;2022-08-19T05:29:24;39.95;;;34.42;;
26181;SDS011;13927;51.534;11.866;2022-08-19T05:31:53;41.38;;;36.45;;
26181;SDS011;13927;51.534;11.866;2022-08-19T05:34:20;39.00;;;33.78;;
26181;SDS011;13927;51.534;11.866;2022-08-19T05:36:55;35.78;;;32.15;;
26181;SDS011;13927;51.534;11.866;2022-08-19T05:39:24;34.85;;;31.17;;
26181;SDS011;13927;51.534;11.866;2022-08-19T05:41:57;34.15;;;30.48;;
26181;SDS011;13927;51.534;11.866;2022-08-19T05:44:32;35.63;;;29.50;;
26181;SDS011;13927;51.534;11.866;2022-08-19T05:47:20;32.22;;;28.25;;
26181;SDS011;13927;51.534;11.866;2022-08-19T05:49:47;32.58;;;28.58;;
26181;SDS011;13927;51.534;11.866;2022-08-19T05:52:28;32.15;;;26.77;;
26181;SDS011;13927;51.534;11.866;2022-08-19T05:54:54;29.60;;;26.48;;
26181;SDS011;13927;51.534;11.866;2022-08-19T05:57:20;29.35;;;26.25;;
26181;SDS011;13927;51.534;11.866;2022-08-19T05:59:46;27.45;;;24.40;;
26181;SDS011;13927;51.534;11.866;2022-08-19T06:02:13;26.58;;;23.83;;
26181;SDS011;13927;51.534;11.866;2022-08-19T06:04:39;26.75;;;22.67;;
26181;SDS011;13927;51.534;11.866;2022-08-19T06:07:07;26.33;;;23.58;;
26181;SDS011;13927;51.534;11.866;2022-08-19T06:09:35;25.30;;;22.88;;
26181;SDS011;13927;51.534;11.866;2022-08-19T06:12:02;24.48;;;22.02;;
26181;SDS011;13927;51.534;11.866;2022-08-19T06:14:30;24.95;;;22.42;;
26181;SDS011;13927;51.534;11.866;2022-08-19T06:16:59;23.30;;;20.80;;
26181;SDS011;13927;51.534;11.866;2022-08-19T06:19:27;24.30;;;21.90;;
26181;SDS011;13927;51.534;11.866;2022-08-19T06:21:58;24.25;;;21.80;;
26181;SDS011;13927;51.534;11.866;2022-08-19T06:24:25;24.45;;;21.67;;
26181;SDS011;13927;51.534;11.866;2022-08-19T06:26:54;24.02;;;21.55;;
26181;SDS011;13927;51.534;11.866;2022-08-19T06:29:23;22.42;;;20.13;;
26181;SDS011;13927;51.534;11.866;2022-08-19T06:31:52;23.77;;;21.38;;
26181;SDS011;13927;51.534;11.866;2022-08-19T06:34:24;24.08;;;21.60;;
26181;SDS011;13927;51.534;11.866;2022-08-19T06:36:53;23.60;;;21.08;;
26181;SDS011;13927;51.534;11.866;2022-08-19T06:39:24;22.27;;;20.08;;
26181;SDS011;13927;51.534;11.866;2022-08-19T06:41:54;22.27;;;19.17;;
26181;SDS011;13927;51.534;11.866;2022-08-19T06:44:26;22.48;;;20.17;;
26181;SDS011;13927;51.534;11.866;2022-08-19T06:46:56;22.48;;;20.15;;
26181;SDS011;13927;51.534;11.866;2022-08-19T06:49:22;24.63;;;21.38;;
26181;SDS011;13927;51.534;11.866;2022-08-19T06:51:48;21.60;;;19.42;;
26181;SDS011;13927;51.534;11.866;2022-08-19T06:54:15;21.23;;;19.10;;
26181;SDS011;13927;51.534;11.866;2022-08-19T06:56:43;23.13;;;19.83;;
26181;SDS011;13927;51.534;11.866;2022-08-19T06:59:12;23.20;;;19.05;;
26181;SDS011;13927;51.534;11.866;2022-08-19T07:01:47;21.52;;;18.70;;
26181;SDS011;13927;51.534;11.866;2022-08-19T07:04:16;20.25;;;18.15;;
26181;SDS011;13927;51.534;11.866;2022-08-19T07:06:45;21.52;;;18.00;;
26181;SDS011;13927;51.534;11.866;2022-08-19T07:09:12;21.17;;;18.98;;
26181;SDS011;13927;51.534;11.866;2022-08-19T07:11:48;20.45;;;18.33;;
26181;SDS011;13927;51.534;11.866;2022-08-19T07:14:24;20.40;;;18.10;;
26181;SDS011;13927;51.534;11.866;2022-08-19T07:16:53;20.33;;;17.83;;
26181;SDS011;13927;51.534;11.866;2022-08-19T07:19:21;21.15;;;18.23;;
26181;SDS011;13927;51.534;11.866;2022-08-19T07:21:52;19.50;;;16.95;;
26181;SDS011;13927;51.534;11.866;2022-08-19T07:24:19;18.92;;;16.92;;
26181;SDS011;13927;51.534;11.866;2022-08-19T07:26:49;18.85;;;16.98;;
26181;SDS011;13927;51.534;11.866;2022-08-19T07:29:18;19.90;;;17.83;;
26181;SDS011;13927;51.534;11.866;2022-08-19T07:31:48;20.33;;;18.15;;
26181;SDS011;13927;51.534;11.866;2022-08-19T07:34:16;19.85;;;17.65;;
26181;SDS011;13927;51.534;11.866;2022-08-19T07:36:42;21.10;;;17.83;;
26181;SDS011;13927;51.534;11.866;2022-08-19T07:39:13;20.73;;;18.60;;
26181;SDS011;13927;51.534;11.866;2022-08-19T07:41:43;20.77;;;18.55;;
26181;SDS011;13927;51.534;11.866;2022-08-19T07:44:09;21.33;;;18.88;;
26181;SDS011;13927;51.534;11.866;2022-08-19T07:46:38;19.17;;;17.17;;
26181;SDS011;13927;51.534;11.866;2022-08-19T07:49:09;21.75;;;18.58;;
26181;SDS011;13927;51.534;11.866;2022-08-19T07:51:39;24.90;;;19.48;;
26181;SDS011;13927;51.534;11.866;2022-08-19T07:54:05;20.33;;;18.23;;
26181;SDS011;13927;51.534;11.866;2022-08-19T07:56:31;20.42;;;18.23;;
26181;SDS011;13927;51.534;11.866;2022-08-19T07:58:56;20.65;;;18.50;;
26181;SDS011;13927;51.534;11.866;2022-08-19T08:01:23;25.00;;;18.58;;
26181;SDS011;13927;51.534;11.866;2022-08-19T08:03:56;21.88;;;17.52;;
26181;SDS011;13927;51.534;11.866;2022-08-19T08:06:41;23.42;;;17.98;;
26181;SDS011;13927;51.534;11.866;2022-08-19T08:09:27;21.80;;;18.63;;
26181;SDS011;13927;51.534;11.866;2022-08-19T08:12:01;20.98;;;18.58;;
26181;SDS011;13927;51.534;11.866;2022-08-19T08:14:40;19.55;;;17.50;;
26181;SDS011;13927;51.534;11.866;2022-08-19T08:17:15;19.42;;;17.17;;
26181;SDS011;13927;51.534;11.866;2022-08-19T08:19:44;18.45;;;16.48;;
26181;SDS011;13927;51.534;11.866;2022-08-19T08:22:16;19.88;;;17.13;;
26181;SDS011;13927;51.534;11.866;2022-08-19T08:25:06;18.33;;;16.55;;
26181;SDS011;13927;51.534;11.866;2022-08-19T08:27:45;16.73;;;15.02;;
26181;SDS011;13927;51.534;11.866;2022-08-19T08:30:22;18.08;;;16.25;;
26181;SDS011;13927;51.534;11.866;2022-08-19T08:32:50;19.42;;;16.63;;
26181;SDS011;13927;51.534;11.866;2022-08-19T08:35:18;18.52;;;16.13;;
26181;SDS011;13927;51.534;11.866;2022-08-19T08:37:48;16.40;;;14.68;;
26181;SDS011;13927;51.534;11.866;2022-08-19T08:40:29;17.95;;;16.00;;
26181;SDS011;13927;51.534;11.866;2022-08-19T08:49:02;19.50;;;16.25;;
26181;SDS011;13927;51.534;11.866;2022-08-19T08:52:06;17.48;;;15.20;;
26181;SDS011;13927;51.534;11.866;2022-08-19T08:54:52;17.98;;;16.00;;
26181;SDS011;13927;51.534;11.866;2022-08-19T08:57:36;17.80;;;16.17;;
26181;SDS011;13927;51.534;11.866;2022-08-19T09:00:30;17.48;;;15.57;;
26181;SDS011;13927;51.534;11.866;2022-08-19T09:05:36;17.35;;;15.55;;
26181;SDS011;13927;51.534;11.866;2022-08-19T09:08:17;17.48;;;15.60;;
26181;SDS011;13927;51.534;11.866;2022-08-19T09:10:54;20.35;;;16.13;;
26181;SDS011;13927;51.534;11.866;2022-08-19T09:16:21;19.25;;;16.90;;
26181;SDS011;13927;51.534;11.866;2022-08-19T09:18:52;18.30;;;16.35;;
26181;SDS011;13927;51.534;11.866;2022-08-19T09:21:23;19.13;;;16.92;;
26181;SDS011;13927;51.534;11.866;2022-08-19T09:23:52;19.58;;;17.58;;
26181;SDS011;13927;51.534;11.866;2022-08-19T09:26:19;19.77;;;16.77;;
26181;SDS011;13927;51.534;11.866;2022-08-19T09:28:48;19.48;;;17.35;;
26181;SDS011;13927;51.534;11.866;2022-08-19T09:31:18;19.13;;;17.10;;
26181;SDS011;13927;51.534;11.866;2022-08-19T09:33:48;17.77;;;15.95;;
26181;SDS011;13927;51.534;11.866;2022-08-19T09:36:16;17.58;;;15.75;;
26181;SDS011;13927;51.534;11.866;2022-08-19T09:38:44;17.60;;;15.65;;
26181;SDS011;13927;51.534;11.866;2022-08-19T09:41:16;17.50;;;15.70;;
26181;SDS011;13927;51.534;11.866;2022-08-19T09:43:46;17.27;;;15.52;;
26181;SDS011;13927;51.534;11.866;2022-08-19T09:46:19;19.48;;;15.63;;
26181;SDS011;13927;51.534;11.866;2022-08-19T09:48:48;15.32;;;13.82;;
26181;SDS011;13927;51.534;11.866;2022-08-19T09:51:17;16.35;;;14.73;;
26181;SDS011;13927;51.534;11.866;2022-08-19T09:53:51;16.13;;;14.52;;
26181;SDS011;13927;51.534;11.866;2022-08-19T09:56:19;19.45;;;16.75;;
26181;SDS011;13927;51.534;11.866;2022-08-19T09:58:47;17.55;;;15.63;;
26181;SDS011;13927;51.534;11.866;2022-08-19T10:01:18;18.50;;;16.52;;
26181;SDS011;13927;51.534;11.866;2022-08-19T10:03:49;17.02;;;15.32;;
26181;SDS011;13927;51.534;11.866;2022-08-19T10:06:18;17.55;;;15.82;;
26181;SDS011;13927;51.534;11.866;2022-08-19T10:08:47;19.63;;;17.73;;
26181;SDS011;13927;51.534;11.866;2022-08-19T10:11:13;19.95;;;17.85;;
26181;SDS011;13927;51.534;11.866;2022-08-19T10:13:41;19.95;;;17.80;;
26181;SDS011;13927;51.534;11.866;2022-08-19T10:16:10;19.92;;;17.85;;
26181;SDS011;13927;51.534;11.866;2022-08-19T10:18:43;18.98;;;17.08;;
26181;SDS011;13927;51.534;11.866;2022-08-19T10:23:39;19.65;;;16.08;;
26181;SDS011;13927;51.534;11.866;2022-08-19T10:26:12;17.23;;;15.50;;
26181;SDS011;13927;51.534;11.866;2022-08-19T10:28:41;14.73;;;13.20;;
26181;SDS011;13927;51.534;11.866;2022-08-19T10:31:08;15.35;;;13.85;;
26181;SDS011;13927;51.534;11.866;2022-08-19T10:33:55;17.55;;;14.77;;
26181;SDS011;13927;51.534;11.866;2022-08-19T10:36:25;15.52;;;13.68;;
26181;SDS011;13927;51.534;11.866;2022-08-19T10:38:55;14.02;;;12.70;;
26181;SDS011;13927;51.534;11.866;2022-08-19T10:41:30;14.52;;;13.02;;
26181;SDS011;13927;51.534;11.866;2022-08-19T10:44:01;16.65;;;13.77;;
26181;SDS011;13927;51.534;11.866;2022-08-19T10:46:33;16.95;;;15.18;;
26181;SDS011;13927;51.534;11.866;2022-08-19T10:49:03;15.98;;;14.32;;
26181;SDS011;13927;51.534;11.866;2022-08-19T10:51:31;18.25;;;16.45;;
26181;SDS011;13927;51.534;11.866;2022-08-19T10:54:16;18.67;;;16.70;;
26181;SDS011;13927;51.534;11.866;2022-08-19T10:56:43;18.65;;;16.65;;
26181;SDS011;13927;51.534;11.866;2022-08-19T10:59:17;19.80;;;17.67;;
26181;SDS011;13927;51.534;11.866;2022-08-19T11:01:45;19.05;;;17.15;;
26181;SDS011;13927;51.534;11.866;2022-08-19T11:04:11;18.38;;;15.88;;
26181;SDS011;13927;51.534;11.866;2022-08-19T11:06:38;19.05;;;17.05;;
26181;SDS011;13927;51.534;11.866;2022-08-19T11:09:14;20.48;;;18.38;;
26181;SDS011;13927;51.534;11.866;2022-08-19T11:11:45;20.00;;;18.03;;
26181;SDS011;13927;51.534;11.866;2022-08-19T11:14:13;19.17;;;16.80;;
26181;SDS011;13927;51.534;11.866;2022-08-19T11:16:41;19.30;;;16.67;;
26181;SDS011;13927;51.534;11.866;2022-08-19T11:19:08;17.08;;;15.30;;
26181;SDS011;13927;51.534;11.866;2022-08-19T11:21:37;16.88;;;15.05;;
26181;SDS011;13927;51.534;11.866;2022-08-19T11:24:09;17.35;;;15.55;;
26181;SDS011;13927;51.534;11.866;2022-08-19T11:26:40;16.67;;;15.07;;
26181;SDS011;13927;51.534;11.866;2022-08-19T11:29:08;18.23;;;16.30;;
26181;SDS011;13927;51.534;11.866;2022-08-19T11:31:38;18.02;;;16.13;;
26181;SDS011;13927;51.534;11.866;2022-08-19T11:34:07;19.15;;;17.20;;
26181;SDS011;13927;51.534;11.866;2022-08-19T11:36:38;17.98;;;15.73;;
26181;SDS011;13927;51.534;11.866;2022-08-19T11:39:08;19.50;;;17.42;;
26181;SDS011;13927;51.534;11.866;2022-08-19T11:41:36;19.83;;;17.55;;
26181;SDS011;13927;51.534;11.866;2022-08-19T11:44:03;21.05;;;18.92;;
26181;SDS011;13927;51.534;11.866;2022-08-19T11:46:32;18.70;;;17.00;;
26181;SDS011;13927;51.534;11.866;2022-08-19T11:49:00;18.63;;;16.77;;
26181;SDS011;13927;51.534;11.866;2022-08-19T11:51:29;19.80;;;17.90;;
26181;SDS011;13927;51.534;11.866;2022-08-19T11:53:56;19.20;;;17.30;;
26181;SDS011;13927;51.534;11.866;2022-08-19T11:56:24;18.88;;;16.98;;
26181;SDS011;13927;51.534;11.866;2022-08-19T11:58:51;18.15;;;16.35;;
26181;SDS011;13927;51.534;11.866;2022-08-19T12:01:19;17.30;;;15.20;;
26181;SDS011;13927;51.534;11.866;2022-08-19T12:03:49;16.45;;;14.77;;
26181;SDS011;13927;51.534;11.866;2022-08-19T12:06:18;16.92;;;15.10;;
26181;SDS011;13927;51.534;11.866;2022-08-19T12:08:50;15.80;;;14.27;;
26181;SDS011;13927;51.534;11.866;2022-08-19T12:11:16;16.42;;;14.82;;
26181;SDS011;13927;51.534;11.866;2022-08-19T12:13:42;17.52;;;15.55;;
26181;SDS011;13927;51.534;11.866;2022-08-19T12:16:16;16.02;;;14.38;;
26181;SDS011;13927;51.534;11.866;2022-08-19T12:18:55;16.60;;;14.35;;
26181;SDS011;13927;51.534;11.866;2022-08-19T12:21:23;13.82;;;12.35;;
26181;SDS011;13927;51.534;11.866;2022-08-19T12:24:05;14.43;;;12.93;;
26181;SDS011;13927;51.534;11.866;2022-08-19T12:26:33;15.43;;;12.43;;
26181;SDS011;13927;51.534;11.866;2022-08-19T12:28:59;14.40;;;13.00;;
26181;SDS011;13927;51.534;11.866;2022-08-19T12:31:26;12.52;;;11.32;;
26181;SDS011;13927;51.534;11.866;2022-08-19T12:33:53;13.32;;;12.02;;
26181;SDS011;13927;51.534;11.866;2022-08-19T12:36:19;14.85;;;13.35;;
26181;SDS011;13927;51.534;11.866;2022-08-19T12:38:47;17.67;;;15.98;;
26181;SDS011;13927;51.534;11.866;2022-08-19T12:41:17;16.67;;;14.05;;
26181;SDS011;13927;51.534;11.866;2022-08-19T12:43:43;13.20;;;12.00;;
26181;SDS011;13927;51.534;11.866;2022-08-19T12:46:10;15.02;;;12.52;;
26181;SDS011;13927;51.534;11.866;2022-08-19T12:48:37;15.15;;;13.48;;
26181;SDS011;13927;51.534;11.866;2022-08-19T12:51:08;15.80;;;14.20;;
26181;SDS011;13927;51.534;11.866;2022-08-19T12:53:38;17.45;;;15.10;;
26181;SDS011;13927;51.534;11.866;2022-08-19T12:56:04;23.90;;;21.40;;
26181;SDS011;13927;51.534;11.866;2022-08-19T12:58:30;25.65;;;23.02;;
26181;SDS011;13927;51.534;11.866;2022-08-19T13:01:00;25.02;;;22.27;;
26181;SDS011;13927;51.534;11.866;2022-08-19T13:03:33;25.02;;;22.42;;
26181;SDS011;13927;51.534;11.866;2022-08-19T13:05:58;25.38;;;22.70;;
26181;SDS011;13927;51.534;11.866;2022-08-19T13:08:24;24.70;;;20.92;;
26181;SDS011;13927;51.534;11.866;2022-08-19T13:10:51;26.10;;;23.08;;
26181;SDS011;13927;51.534;11.866;2022-08-19T13:13:18;27.33;;;23.75;;
26181;SDS011;13927;51.534;11.866;2022-08-19T13:15:44;26.58;;;23.95;;
26181;SDS011;13927;51.534;11.866;2022-08-19T13:18:10;26.70;;;24.00;;
26181;SDS011;13927;51.534;11.866;2022-08-19T13:20:37;26.55;;;23.75;;
26181;SDS011;13927;51.534;11.866;2022-08-19T13:23:08;26.70;;;23.90;;
26181;SDS011;13927;51.534;11.866;2022-08-19T13:25:35;26.88;;;24.17;;
26181;SDS011;13927;51.534;11.866;2022-08-19T13:28:01;27.40;;;24.60;;
26181;SDS011;13927;51.534;11.866;2022-08-19T13:30:28;27.02;;;23.05;;
26181;SDS011;13927;51.534;11.866;2022-08-19T13:33:12;27.30;;;24.48;;
26181;SDS011;13927;51.534;11.866;2022-08-19T13:35:51;29.02;;;24.70;;
26181;SDS011;13927;51.534;11.866;2022-08-19T13:38:23;27.58;;;24.52;;
26181;SDS011;13927;51.534;11.866;2022-08-19T13:40:50;25.40;;;22.73;;
26181;SDS011;13927;51.534;11.866;2022-08-19T13:43:17;26.05;;;23.25;;
26181;SDS011;13927;51.534;11.866;2022-08-19T13:45:46;27.60;;;24.75;;
26181;SDS011;13927;51.534;11.866;2022-08-19T13:48:12;26.17;;;23.38;;
26181;SDS011;13927;51.534;11.866;2022-08-19T13:50:42;26.92;;;23.50;;
26181;SDS011;13927;51.534;11.866;2022-08-19T13:53:10;25.38;;;22.88;;
26181;SDS011;13927;51.534;11.866;2022-08-19T13:56:46;24.10;;;21.55;;
26181;SDS011;13927;51.534;11.866;2022-08-19T13:59:12;23.65;;;21.33;;
26181;SDS011;13927;51.534;11.866;2022-08-19T14:01:39;23.98;;;21.58;;
26181;SDS011;13927;51.534;11.866;2022-08-19T14:04:07;23.92;;;21.42;;
26181;SDS011;13927;51.534;11.866;2022-08-19T14:06:33;23.73;;;21.42;;
26181;SDS011;13927;51.534;11.866;2022-08-19T14:09:01;22.48;;;20.13;;
26181;SDS011;13927;51.534;11.866;2022-08-19T14:11:27;23.02;;;20.70;;
26181;SDS011;13927;51.534;11.866;2022-08-19T14:13:54;21.23;;;19.10;;
26181;SDS011;13927;51.534;11.866;2022-08-19T14:16:19;20.23;;;18.13;;
26181;SDS011;13927;51.534;11.866;2022-08-19T14:18:47;20.63;;;18.60;;
26181;SDS011;13927;51.534;11.866;2022-08-19T14:21:14;19.23;;;17.42;;
26181;SDS011;13927;51.534;11.866;2022-08-19T14:23:45;21.33;;;19.52;;
26181;SDS011;13927;51.534;11.866;2022-08-19T14:26:13;19.75;;;17.83;;
26181;SDS011;13927;51.534;11.866;2022-08-19T14:28:42;20.52;;;18.52;;
26181;SDS011;13927;51.534;11.866;2022-08-19T14:31:11;20.42;;;18.52;;
26181;SDS011;13927;51.534;11.866;2022-08-19T14:33:41;23.00;;;20.90;;
26181;SDS011;13927;51.534;11.866;2022-08-19T14:36:07;20.20;;;18.38;;
26181;SDS011;13927;51.534;11.866;2022-08-19T14:38:33;20.55;;;18.60;;
26181;SDS011;13927;51.534;11.866;2022-08-19T14:43:46;20.10;;;18.20;;
26181;SDS011;13927;51.534;11.866;2022-08-19T14:46:16;20.92;;;19.02;;
26181;SDS011;13927;51.534;11.866;2022-08-19T14:48:46;19.98;;;18.15;;
26181;SDS011;13927;51.534;11.866;2022-08-19T14:51:12;21.08;;;19.23;;
26181;SDS011;13927;51.534;11.866;2022-08-19T14:53:39;23.63;;;21.27;;
26181;SDS011;13927;51.534;11.866;2022-08-19T14:56:07;21.55;;;19.48;;
26181;SDS011;13927;51.534;11.866;2022-08-19T14:58:44;20.85;;;18.90;;
26181;SDS011;13927;51.534;11.866;2022-08-19T15:01:10;21.25;;;19.25;;
26181;SDS011;13927;51.534;11.866;2022-08-19T15:03:38;20.80;;;18.95;;
26181;SDS011;13927;51.534;11.866;2022-08-19T15:06:06;19.40;;;17.50;;
26181;SDS011;13927;51.534;11.866;2022-08-19T15:08:34;20.85;;;18.92;;
26181;SDS011;13927;51.534;11.866;2022-08-19T15:11:07;19.77;;;18.08;;
26181;SDS011;13927;51.534;11.866;2022-08-19T15:13:35;20.70;;;18.75;;
26181;SDS011;13927;51.534;11.866;2022-08-19T15:16:01;20.38;;;18.48;;
26181;SDS011;13927;51.534;11.866;2022-08-19T15:18:28;20.42;;;18.38;;
26181;SDS011;13927;51.534;11.866;2022-08-19T15:20:53;18.67;;;16.95;;
26181;SDS011;13927;51.534;11.866;2022-08-19T15:23:22;18.63;;;16.73;;
26181;SDS011;13927;51.534;11.866;2022-08-19T15:25:48;19.73;;;17.90;;
26181;SDS011;13927;51.534;11.866;2022-08-19T15:28:18;19.85;;;17.98;;
26181;SDS011;13927;51.534;11.866;2022-08-19T15:30:44;18.25;;;16.75;;
26181;SDS011;13927;51.534;11.866;2022-08-19T15:33:10;17.60;;;16.00;;
26181;SDS011;13927;51.534;11.866;2022-08-19T15:35:39;18.15;;;16.55;;
26181;SDS011;13927;51.534;11.866;2022-08-19T15:38:07;17.35;;;15.68;;
26181;SDS011;13927;51.534;11.866;2022-08-19T15:40:33;16.70;;;15.02;;
26181;SDS011;13927;51.534;11.866;2022-08-19T15:42:59;16.73;;;15.20;;
26181;SDS011;13927;51.534;11.866;2022-08-19T15:45:25;16.90;;;15.27;;
26181;SDS011;13927;51.534;11.866;2022-08-19T15:48:01;16.75;;;15.25;;
26181;SDS011;13927;51.534;11.866;2022-08-19T15:50:29;16.70;;;15.13;;
26181;SDS011;13927;51.534;11.866;2022-08-19T15:52:59;17.02;;;15.43;;
26181;SDS011;13927;51.534;11.866;2022-08-19T15:55:30;16.75;;;15.15;;
26181;SDS011;13927;51.534;11.866;2022-08-19T15:57:59;15.70;;;14.18;;
26181;SDS011;13927;51.534;11.866;2022-08-19T16:00:46;15.23;;;13.82;;
26181;SDS011;13927;51.534;11.866;2022-08-19T16:03:30;13.82;;;12.52;;
26181;SDS011;13927;51.534;11.866;2022-08-19T16:06:14;14.50;;;13.18;;
26181;SDS011;13927;51.534;11.866;2022-08-19T16:09:06;14.10;;;13.00;;
26181;SDS011;13927;51.534;11.866;2022-08-19T16:11:33;15.07;;;13.43;;
26181;SDS011;13927;51.534;11.866;2022-08-19T16:14:00;15.25;;;14.02;;
26181;SDS011;13927;51.534;11.866;2022-08-19T16:16:30;17.17;;;14.45;;
26181;SDS011;13927;51.534;11.866;2022-08-19T16:18:58;15.82;;;14.43;;
26181;SDS011;13927;51.534;11.866;2022-08-19T16:21:27;16.13;;;14.52;;
26181;SDS011;13927;51.534;11.866;2022-08-19T16:23:58;15.77;;;14.35;;
26181;SDS011;13927;51.534;11.866;2022-08-19T16:26:26;15.02;;;13.63;;
26181;SDS011;13927;51.534;11.866;2022-08-19T16:28:56;15.23;;;13.82;;
26181;SDS011;13927;51.534;11.866;2022-08-19T16:31:23;15.40;;;13.98;;
26181;SDS011;13927;51.534;11.866;2022-08-19T16:33:50;15.43;;;14.05;;
26181;SDS011;13927;51.534;11.866;2022-08-19T16:36:16;17.25;;;15.75;;
26181;SDS011;13927;51.534;11.866;2022-08-19T16:38:43;16.83;;;15.23;;
26181;SDS011;13927;51.534;11.866;2022-08-19T16:41:10;15.43;;;13.98;;
26181;SDS011;13927;51.534;11.866;2022-08-19T16:43:38;15.90;;;14.52;;
26181;SDS011;13927;51.534;11.866;2022-08-19T16:46:07;14.75;;;13.48;;
26181;SDS011;13927;51.534;11.866;2022-08-19T16:48:34;16.25;;;14.77;;
26181;SDS011;13927;51.534;11.866;2022-08-19T16:51:09;16.55;;;15.10;;
26181;SDS011;13927;51.534;11.866;2022-08-19T16:53:38;16.10;;;14.68;;
26181;SDS011;13927;51.534;11.866;2022-08-19T16:56:06;16.60;;;15.13;;
26181;SDS011;13927;51.534;11.866;2022-08-19T16:58:34;15.82;;;14.23;;
26181;SDS011;13927;51.534;11.866;2022-08-19T17:01:06;16.67;;;15.18;;
26181;SDS011;13927;51.534;11.866;2022-08-19T17:03:34;14.65;;;13.15;;
26181;SDS011;13927;51.534;11.866;2022-08-19T17:06:01;17.02;;;15.23;;
26181;SDS011;13927;51.534;11.866;2022-08-19T17:08:35;16.48;;;14.88;;
26181;SDS011;13927;51.534;11.866;2022-08-19T17:11:01;15.32;;;13.93;;
26181;SDS011;13927;51.534;11.866;2022-08-19T17:13:27;16.25;;;14.52;;
26181;SDS011;13927;51.534;11.866;2022-08-19T17:15:53;15.68;;;13.90;;
26181;SDS011;13927;51.534;11.866;2022-08-19T17:18:20;14.88;;;13.35;;
26181;SDS011;13927;51.534;11.866;2022-08-19T17:20:48;12.55;;;11.35;;
26181;SDS011;13927;51.534;11.866;2022-08-19T17:23:15;14.52;;;10.95;;
26181;SDS011;13927;51.534;11.866;2022-08-19T17:25:42;12.10;;;10.98;;
26181;SDS011;13927;51.534;11.866;2022-08-19T17:28:16;11.23;;;10.20;;
26181;SDS011;13927;51.534;11.866;2022-08-19T17:30:48;11.23;;;10.13;;
26181;SDS011;13927;51.534;11.866;2022-08-19T17:33:16;10.38;;;9.38;;
26181;SDS011;13927;51.534;11.866;2022-08-19T17:35:43;11.32;;;10.32;;
26181;SDS011;13927;51.534;11.866;2022-08-19T17:38:10;12.98;;;11.68;;
26181;SDS011;13927;51.534;11.866;2022-08-19T17:40:41;15.38;;;13.80;;
26181;SDS011;13927;51.534;11.866;2022-08-19T17:43:11;15.23;;;13.77;;
26181;SDS011;13927;51.534;11.866;2022-08-19T17:45:42;14.98;;;13.50;;